sensor_id;sensor_type;location;lat;lon;timestamp;P1;durP1;ratioP1;P2;durP2;ratioP2
51226;SDS011;42714;48.260;10.980;2023-09-12T00:00:56;27.2;;;14.4;;
51226;SDS011;42714;48.260;10.980;2023-09-12T00:05:58;21.6;;;14.2;;
51226;SDS011;42714;48.260;10.980;2023-09-12T00:11:00;31.2;;;14.6;;
51226;SDS011;42714;48.260;10.980;2023-09-12T00:15:56;26.3;;;14.2;;
51226;SDS011;42714;48.260;10.980;2023-09-12T00:20:56;24.2;;;14.0;;
51226;SDS011;42714;48.260;10.980;2023-09-12T00:25:56;22.9;;;13.3;;
51226;SDS011;42714;48.260;10.980;2023-09-12T00:30:56;24.7;;;14.9;;
51226;SDS011;42714;48.260;10.980;2023-09-12T00:35:56;24.2;;;14.2;;
51226;SDS011;42714;48.260;10.980;2023-09-12T00:40:56;25.7;;;14.1;;
51226;SDS011;42714;48.260;10.980;2023-09-12T00:45:56;24.4;;;13.6;;
51226;SDS011;42714;48.260;10.980;2023-09-12T00:50:56;21.9;;;12.8;;
51226;SDS011;42714;48.260;10.980;2023-09-12T00:55:57;21.5;;;13.8;;
51226;SDS011;42714;48.260;10.980;2023-09-12T01:00:56;24.8;;;13.7;;
51226;SDS011;42714;48.260;10.980;2023-09-12T01:05:57;22.8;;;13.6;;
51226;SDS011;42714;48.260;10.980;2023-09-12T01:10:56;20.4;;;13.4;;
51226;SDS011;42714;48.260;10.980;2023-09-12T01:15:56;22.0;;;13.7;;
51226;SDS011;42714;48.260;10.980;2023-09-12T01:21:44;21.1;;;13.8;;
51226;SDS011;42714;48.260;10.980;2023-09-12T01:30:57;29.9;;;15.0;;
51226;SDS011;42714;48.260;10.980;2023-09-12T01:35:56;23.4;;;15.2;;
51226;SDS011;42714;48.260;10.980;2023-09-12T01:40:56;22.6;;;16.0;;
51226;SDS011;42714;48.260;10.980;2023-09-12T01:45:57;23.7;;;16.2;;
51226;SDS011;42714;48.260;10.980;2023-09-12T01:50:56;29.3;;;16.7;;
51226;SDS011;42714;48.260;10.980;2023-09-12T01:55:57;29.1;;;16.6;;
51226;SDS011;42714;48.260;10.980;2023-09-12T02:00:56;23.4;;;16.5;;
51226;SDS011;42714;48.260;10.980;2023-09-12T02:05:56;23.9;;;16.6;;
51226;SDS011;42714;48.260;10.980;2023-09-12T02:10:56;23.7;;;15.7;;
51226;SDS011;42714;48.260;10.980;2023-09-12T02:20:58;30.5;;;16.7;;
51226;SDS011;42714;48.260;10.980;2023-09-12T02:25:56;24.7;;;15.4;;
51226;SDS011;42714;48.260;10.980;2023-09-12T02:30:56;23.2;;;15.2;;
51226;SDS011;42714;48.260;10.980;2023-09-12T02:35:56;23.2;;;16.5;;
51226;SDS011;42714;48.260;10.980;2023-09-12T02:40:56;24.8;;;16.6;;
51226;SDS011;42714;48.260;10.980;2023-09-12T02:45:56;29.9;;;16.8;;
51226;SDS011;42714;48.260;10.980;2023-09-12T02:50:56;25.8;;;17.2;;
51226;SDS011;42714;48.260;10.980;2023-09-12T02:55:56;26.5;;;17.6;;
51226;SDS011;42714;48.260;10.980;2023-09-12T03:00:56;34.5;;;18.4;;
51226;SDS011;42714;48.260;10.980;2023-09-12T03:05:59;26.6;;;17.1;;
51226;SDS011;42714;48.260;10.980;2023-09-12T03:10:57;29.0;;;17.0;;
51226;SDS011;42714;48.260;10.980;2023-09-12T03:15:56;29.2;;;16.8;;
51226;SDS011;42714;48.260;10.980;2023-09-12T03:20:56;31.4;;;17.9;;
51226;SDS011;42714;48.260;10.980;2023-09-12T03:35:56;27.8;;;18.2;;
51226;SDS011;42714;48.260;10.980;2023-09-12T03:40:56;26.3;;;16.6;;
51226;SDS011;42714;48.260;10.980;2023-09-12T03:45:56;30.7;;;17.5;;
51226;SDS011;42714;48.260;10.980;2023-09-12T03:50:56;33.0;;;17.7;;
51226;SDS011;42714;48.260;10.980;2023-09-12T03:55:57;31.5;;;17.4;;
51226;SDS011;42714;48.260;10.980;2023-09-12T04:00:56;26.9;;;16.9;;
51226;SDS011;42714;48.260;10.980;2023-09-12T04:05:56;28.0;;;16.8;;
51226;SDS011;42714;48.260;10.980;2023-09-12T04:10:56;29.6;;;17.3;;
51226;SDS011;42714;48.260;10.980;2023-09-12T04:15:56;30.5;;;18.6;;
51226;SDS011;42714;48.260;10.980;2023-09-12T04:20:56;37.0;;;17.9;;
51226;SDS011;42714;48.260;10.980;2023-09-12T04:25:56;28.8;;;17.4;;
51226;SDS011;42714;48.260;10.980;2023-09-12T04:35:57;25.8;;;16.8;;
51226;SDS011;42714;48.260;10.980;2023-09-12T04:40:56;28.3;;;18.5;;
51226;SDS011;42714;48.260;10.980;2023-09-12T04:45:57;33.4;;;18.8;;
51226;SDS011;42714;48.260;10.980;2023-09-12T04:50:56;26.9;;;17.9;;
51226;SDS011;42714;48.260;10.980;2023-09-12T04:55:56;30.3;;;16.9;;
51226;SDS011;42714;48.260;10.980;2023-09-12T05:00:56;28.3;;;15.8;;
51226;SDS011;42714;48.260;10.980;2023-09-12T05:05:56;25.5;;;15.3;;
51226;SDS011;42714;48.260;10.980;2023-09-12T05:10:56;24.6;;;14.6;;
51226;SDS011;42714;48.260;10.980;2023-09-12T05:15:56;31.2;;;14.1;;
51226;SDS011;42714;48.260;10.980;2023-09-12T05:20:56;31.4;;;12.7;;
51226;SDS011;42714;48.260;10.980;2023-09-12T05:25:56;27.4;;;13.3;;
51226;SDS011;42714;48.260;10.980;2023-09-12T05:30:56;23.0;;;14.2;;
51226;SDS011;42714;48.260;10.980;2023-09-12T05:35:57;25.6;;;14.2;;
51226;SDS011;42714;48.260;10.980;2023-09-12T05:40:56;24.3;;;13.3;;
51226;SDS011;42714;48.260;10.980;2023-09-12T05:45:56;27.9;;;13.5;;
51226;SDS011;42714;48.260;10.980;2023-09-12T05:50:56;22.9;;;12.7;;
51226;SDS011;42714;48.260;10.980;2023-09-12T05:55:56;24.2;;;12.2;;
51226;SDS011;42714;48.260;10.980;2023-09-12T06:00:56;19.8;;;11.0;;
51226;SDS011;42714;48.260;10.980;2023-09-12T06:05:57;19.8;;;11.2;;
51226;SDS011;42714;48.260;10.980;2023-09-12T06:10:57;23.6;;;10.4;;
51226;SDS011;42714;48.260;10.980;2023-09-12T06:15:57;17.5;;;9.7;;
51226;SDS011;42714;48.260;10.980;2023-09-12T06:20:58;18.3;;;10.2;;
51226;SDS011;42714;48.260;10.980;2023-09-12T06:25:57;15.8;;;9.6;;
51226;SDS011;42714;48.260;10.980;2023-09-12T06:30:57;17.7;;;9.3;;
51226;SDS011;42714;48.260;10.980;2023-09-12T06:35:57;16.5;;;9.2;;
51226;SDS011;42714;48.260;10.980;2023-09-12T06:40:57;22.5;;;9.7;;
51226;SDS011;42714;48.260;10.980;2023-09-12T06:45:57;18.2;;;9.3;;
51226;SDS011;42714;48.260;10.980;2023-09-12T06:50:57;16.7;;;8.7;;
51226;SDS011;42714;48.260;10.980;2023-09-12T06:55:57;13.7;;;8.3;;
51226;SDS011;42714;48.260;10.980;2023-09-12T07:01:01;16.2;;;8.2;;
51226;SDS011;42714;48.260;10.980;2023-09-12T07:05:57;14.2;;;7.8;;
51226;SDS011;42714;48.260;10.980;2023-09-12T07:10:57;17.7;;;8.3;;
51226;SDS011;42714;48.260;10.980;2023-09-12T07:15:57;11.5;;;8.6;;
51226;SDS011;42714;48.260;10.980;2023-09-12T07:20:57;11.8;;;7.9;;
51226;SDS011;42714;48.260;10.980;2023-09-12T07:25:57;18.5;;;8.5;;
51226;SDS011;42714;48.260;10.980;2023-09-12T07:30:57;14.9;;;8.2;;
51226;SDS011;42714;48.260;10.980;2023-09-12T07:35:57;15.1;;;7.7;;
51226;SDS011;42714;48.260;10.980;2023-09-12T07:40:57;16.0;;;7.3;;
51226;SDS011;42714;48.260;10.980;2023-09-12T07:45:57;19.0;;;7.5;;
51226;SDS011;42714;48.260;10.980;2023-09-12T07:50:57;12.3;;;7.5;;
51226;SDS011;42714;48.260;10.980;2023-09-12T07:55:59;12.2;;;7.3;;
51226;SDS011;42714;48.260;10.980;2023-09-12T08:00:57;12.2;;;6.8;;
51226;SDS011;42714;48.260;10.980;2023-09-12T08:05:57;11.2;;;6.9;;
51226;SDS011;42714;48.260;10.980;2023-09-12T08:10:57;11.5;;;6.5;;
51226;SDS011;42714;48.260;10.980;2023-09-12T08:15:57;10.5;;;6.7;;
51226;SDS011;42714;48.260;10.980;2023-09-12T08:20:57;14.8;;;7.1;;
51226;SDS011;42714;48.260;10.980;2023-09-12T08:25:57;16.9;;;6.5;;
51226;SDS011;42714;48.260;10.980;2023-09-12T08:30:57;11.0;;;6.1;;
51226;SDS011;42714;48.260;10.980;2023-09-12T08:35:57;12.3;;;6.7;;
51226;SDS011;42714;48.260;10.980;2023-09-12T08:40:57;10.1;;;5.8;;
51226;SDS011;42714;48.260;10.980;2023-09-12T08:45:57;12.8;;;7.7;;
51226;SDS011;42714;48.260;10.980;2023-09-12T08:50:57;11.6;;;6.8;;
51226;SDS011;42714;48.260;10.980;2023-09-12T08:55:57;12.4;;;6.2;;
51226;SDS011;42714;48.260;10.980;2023-09-12T09:00:57;10.6;;;5.9;;
51226;SDS011;42714;48.260;10.980;2023-09-12T09:05:57;25.0;;;6.6;;
51226;SDS011;42714;48.260;10.980;2023-09-12T09:10:57;14.2;;;6.2;;
51226;SDS011;42714;48.260;10.980;2023-09-12T09:20:57;12.6;;;5.6;;
51226;SDS011;42714;48.260;10.980;2023-09-12T09:25:57;15.1;;;5.9;;
51226;SDS011;42714;48.260;10.980;2023-09-12T09:30:57;8.4;;;5.3;;
51226;SDS011;42714;48.260;10.980;2023-09-12T09:40:57;12.4;;;5.0;;
51226;SDS011;42714;48.260;10.980;2023-09-12T17:56:04;18.9;;;5.9;;
51226;SDS011;42714;48.260;10.980;2023-09-12T18:01:04;13.2;;;6.1;;
51226;SDS011;42714;48.260;10.980;2023-09-12T18:06:04;11.5;;;6.1;;
51226;SDS011;42714;48.260;10.980;2023-09-12T18:11:04;11.3;;;6.1;;
51226;SDS011;42714;48.260;10.980;2023-09-12T18:16:04;12.5;;;6.1;;
51226;SDS011;42714;48.260;10.980;2023-09-12T18:21:04;12.9;;;6.4;;
51226;SDS011;42714;48.260;10.980;2023-09-12T18:26:04;17.0;;;6.9;;
51226;SDS011;42714;48.260;10.980;2023-09-12T18:31:05;18.3;;;6.8;;
51226;SDS011;42714;48.260;10.980;2023-09-12T18:36:04;19.3;;;8.4;;
51226;SDS011;42714;48.260;10.980;2023-09-12T18:41:04;20.3;;;8.9;;
51226;SDS011;42714;48.260;10.980;2023-09-12T18:46:05;16.6;;;7.5;;
51226;SDS011;42714;48.260;10.980;2023-09-12T18:51:04;16.5;;;6.9;;
51226;SDS011;42714;48.260;10.980;2023-09-12T18:56:04;11.9;;;6.8;;
51226;SDS011;42714;48.260;10.980;2023-09-12T19:01:04;14.4;;;6.8;;
51226;SDS011;42714;48.260;10.980;2023-09-12T19:06:04;12.1;;;6.8;;
51226;SDS011;42714;48.260;10.980;2023-09-12T19:11:04;12.2;;;6.7;;
51226;SDS011;42714;48.260;10.980;2023-09-12T19:16:04;12.3;;;7.3;;
51226;SDS011;42714;48.260;10.980;2023-09-12T19:21:04;15.8;;;6.5;;
51226;SDS011;42714;48.260;10.980;2023-09-12T19:26:04;12.4;;;6.5;;
51226;SDS011;42714;48.260;10.980;2023-09-12T19:31:04;18.1;;;7.3;;
51226;SDS011;42714;48.260;10.980;2023-09-12T19:36:04;18.8;;;7.5;;
51226;SDS011;42714;48.260;10.980;2023-09-12T19:41:04;14.2;;;8.1;;
51226;SDS011;42714;48.260;10.980;2023-09-12T19:46:04;16.8;;;8.8;;
51226;SDS011;42714;48.260;10.980;2023-09-12T19:51:04;16.3;;;8.0;;
51226;SDS011;42714;48.260;10.980;2023-09-12T19:56:04;16.2;;;8.6;;
51226;SDS011;42714;48.260;10.980;2023-09-12T20:01:04;16.0;;;8.2;;
51226;SDS011;42714;48.260;10.980;2023-09-12T20:06:04;15.3;;;8.8;;
51226;SDS011;42714;48.260;10.980;2023-09-12T20:11:08;13.3;;;8.7;;
51226;SDS011;42714;48.260;10.980;2023-09-12T20:16:04;18.5;;;8.7;;
51226;SDS011;42714;48.260;10.980;2023-09-12T20:21:04;12.5;;;8.4;;
51226;SDS011;42714;48.260;10.980;2023-09-12T20:26:05;16.9;;;8.6;;
51226;SDS011;42714;48.260;10.980;2023-09-12T20:31:04;17.7;;;9.1;;
51226;SDS011;42714;48.260;10.980;2023-09-12T20:36:04;14.6;;;8.6;;
51226;SDS011;42714;48.260;10.980;2023-09-12T20:41:04;17.2;;;8.8;;
51226;SDS011;42714;48.260;10.980;2023-09-12T20:46:04;15.0;;;8.7;;
51226;SDS011;42714;48.260;10.980;2023-09-12T20:51:08;18.4;;;9.2;;
51226;SDS011;42714;48.260;10.980;2023-09-12T20:56:04;15.4;;;9.1;;
51226;SDS011;42714;48.260;10.980;2023-09-12T21:01:04;16.1;;;8.9;;
51226;SDS011;42714;48.260;10.980;2023-09-12T21:06:04;21.7;;;10.3;;
51226;SDS011;42714;48.260;10.980;2023-09-12T21:11:04;15.7;;;9.7;;
51226;SDS011;42714;48.260;10.980;2023-09-12T21:16:04;14.7;;;9.3;;
51226;SDS011;42714;48.260;10.980;2023-09-12T21:21:04;18.6;;;9.8;;
51226;SDS011;42714;48.260;10.980;2023-09-12T21:26:04;16.7;;;9.9;;
51226;SDS011;42714;48.260;10.980;2023-09-12T21:31:04;15.8;;;9.2;;
51226;SDS011;42714;48.260;10.980;2023-09-12T21:36:04;16.3;;;10.2;;
51226;SDS011;42714;48.260;10.980;2023-09-12T21:41:04;14.1;;;8.5;;
51226;SDS011;42714;48.260;10.980;2023-09-12T21:46:04;18.7;;;9.1;;
51226;SDS011;42714;48.260;10.980;2023-09-12T21:51:05;15.0;;;8.3;;
51226;SDS011;42714;48.260;10.980;2023-09-12T21:56:04;17.3;;;8.2;;
51226;SDS011;42714;48.260;10.980;2023-09-12T22:01:04;17.6;;;8.7;;
51226;SDS011;42714;48.260;10.980;2023-09-12T22:06:05;16.6;;;9.8;;
51226;SDS011;42714;48.260;10.980;2023-09-12T22:11:04;14.6;;;10.6;;
51226;SDS011;42714;48.260;10.980;2023-09-12T22:16:04;20.6;;;10.2;;
51226;SDS011;42714;48.260;10.980;2023-09-12T22:21:05;21.5;;;9.8;;
51226;SDS011;42714;48.260;10.980;2023-09-12T22:31:08;16.4;;;9.3;;
51226;SDS011;42714;48.260;10.980;2023-09-12T22:36:04;17.2;;;8.0;;
51226;SDS011;42714;48.260;10.980;2023-09-12T22:41:04;12.8;;;7.2;;
51226;SDS011;42714;48.260;10.980;2023-09-12T22:46:04;13.9;;;6.7;;
51226;SDS011;42714;48.260;10.980;2023-09-12T22:51:04;14.5;;;5.7;;
51226;SDS011;42714;48.260;10.980;2023-09-12T22:56:04;10.6;;;4.6;;
51226;SDS011;42714;48.260;10.980;2023-09-12T23:01:04;9.7;;;5.3;;
51226;SDS011;42714;48.260;10.980;2023-09-12T23:06:04;12.2;;;5.0;;
51226;SDS011;42714;48.260;10.980;2023-09-12T23:11:04;12.1;;;4.9;;
51226;SDS011;42714;48.260;10.980;2023-09-12T23:16:04;12.0;;;5.6;;
51226;SDS011;42714;48.260;10.980;2023-09-12T23:21:04;11.7;;;6.3;;
51226;SDS011;42714;48.260;10.980;2023-09-12T23:26:04;17.1;;;7.0;;
51226;SDS011;42714;48.260;10.980;2023-09-12T23:31:04;13.9;;;7.7;;
51226;SDS011;42714;48.260;10.980;2023-09-12T23:36:04;18.3;;;8.5;;
51226;SDS011;42714;48.260;10.980;2023-09-12T23:41:04;17.5;;;10.8;;
51226;SDS011;42714;48.260;10.980;2023-09-12T23:46:04;25.4;;;10.5;;
51226;SDS011;42714;48.260;10.980;2023-09-12T23:51:04;16.6;;;8.6;;
51226;SDS011;42714;48.260;10.980;2023-09-12T23:56:04;11.7;;;7.7;;
